createdAt,value
2019-03-18T00:01:25.943Z,80.98
2019-03-18T00:03:52.388Z,80.78
2019-03-18T00:06:19.231Z,80.71
2019-03-18T00:08:45.666Z,80.46
2019-03-18T00:11:12.201Z,80.59
2019-03-18T00:13:39.046Z,81.62
2019-03-18T00:16:05.684Z,81.25
2019-03-18T00:18:32.118Z,82.21
2019-03-18T00:20:58.552Z,83.09
2019-03-18T00:23:25.087Z,81.74
2019-03-18T00:25:51.731Z,81.79
2019-03-18T00:28:18.157Z,83.27
2019-03-18T00:30:44.694Z,78.62
2019-03-18T00:33:11.128Z,77.08
2019-03-18T00:35:39.198Z,80.61
2019-03-18T00:38:05.634Z,80.90
2019-03-18T00:40:32.069Z,81.60
2019-03-18T00:42:58.603Z,82.33
2019-03-18T00:45:25.138Z,82.24
2019-03-18T00:47:51.570Z,83.97
2019-03-18T00:50:18.208Z,82.69
2019-03-18T00:52:44.748Z,83.32
2019-03-18T00:55:11.690Z,83.18
2019-03-18T00:57:38.332Z,82.80
2019-03-18T01:00:13.586Z,81.68
2019-03-18T01:02:40.117Z,82.37
2019-03-18T01:05:07.741Z,82.50
2019-03-18T01:07:35.490Z,81.38
2019-03-18T01:10:03.967Z,81.81
2019-03-18T01:12:31.429Z,82.13
2019-03-18T01:14:59.318Z,81.34
2019-03-18T01:17:25.877Z,81.28
2019-03-18T01:19:52.307Z,81.11
2019-03-18T01:22:18.740Z,81.37
2019-03-18T01:24:45.297Z,81.31
2019-03-18T01:27:11.710Z,82.12
2019-03-18T01:29:38.143Z,82.10
2019-03-18T01:32:04.681Z,79.33
2019-03-18T01:34:31.113Z,80.99
2019-03-18T01:36:57.548Z,81.93
2019-03-18T01:39:23.984Z,82.05
2019-03-18T01:41:50.720Z,82.76
2019-03-18T01:44:17.262Z,82.19
2019-03-18T01:46:43.793Z,81.52
2019-03-18T01:49:10.226Z,81.95
2019-03-18T01:51:36.763Z,82.56
2019-03-18T01:54:03.200Z,82.29
2019-03-18T01:56:29.734Z,82.45
2019-03-18T01:58:56.371Z,82.81
2019-03-18T02:01:23.225Z,82.85
2019-03-18T02:03:50.772Z,82.86
2019-03-18T02:06:17.310Z,82.88
2019-03-18T02:08:43.748Z,82.73
2019-03-18T02:11:10.223Z,82.50
2019-03-18T02:13:36.715Z,82.47
2019-03-18T02:16:03.352Z,82.50
2019-03-18T02:18:29.785Z,82.09
2019-03-18T02:20:56.218Z,81.77
2019-03-18T02:23:22.654Z,82.32
2019-03-18T02:25:49.189Z,82.56
2019-03-18T02:28:15.623Z,82.30
2019-03-18T02:30:42.058Z,82.48
2019-03-18T02:33:08.593Z,82.94
2019-03-18T02:35:35.128Z,83.10
2019-03-18T02:38:01.569Z,83.31
2019-03-18T02:40:28.201Z,83.28
2019-03-18T02:42:56.582Z,83.84
2019-03-18T02:45:24.835Z,84.16
2019-03-18T02:47:51.495Z,83.63
2019-03-18T02:50:17.929Z,83.27
2019-03-18T02:52:44.470Z,82.08
2019-03-18T02:55:11.000Z,82.61
2019-03-18T02:57:37.536Z,82.67
2019-03-18T03:00:14.341Z,82.26
2019-03-18T03:02:40.950Z,81.96
2019-03-18T03:05:09.639Z,82.48
2019-03-18T03:07:36.176Z,82.32
2019-03-18T03:10:03.961Z,80.14
2019-03-18T03:12:30.375Z,81.86
2019-03-18T03:14:57.109Z,80.77
2019-03-18T03:17:23.685Z,82.54
2019-03-18T03:19:50.303Z,82.62
2019-03-18T03:22:16.819Z,82.82
2019-03-18T03:24:43.355Z,83.06
2019-03-18T03:27:09.792Z,83.04
2019-03-18T03:29:36.325Z,82.40
2019-03-18T03:32:02.819Z,82.20
2019-03-18T03:34:29.399Z,82.79
2019-03-18T03:36:55.932Z,82.46
2019-03-18T03:39:22.468Z,82.82
2019-03-18T03:41:49.006Z,82.90
2019-03-18T03:44:15.438Z,82.13
2019-03-18T03:46:43.982Z,82.19
2019-03-18T03:49:10.352Z,81.50
2019-03-18T03:51:36.789Z,80.81
2019-03-18T03:54:03.424Z,82.65
2019-03-18T03:56:30.267Z,81.59
2019-03-18T03:58:56.849Z,81.32
2019-03-18T04:01:23.748Z,80.50
2019-03-18T04:03:50.183Z,81.95
2019-03-18T04:06:16.826Z,82.65
2019-03-18T04:08:43.561Z,80.43
2019-03-18T04:11:10.096Z,81.33
2019-03-18T04:13:36.530Z,82.13
2019-03-18T04:16:03.098Z,81.71
2019-03-18T04:18:29.620Z,82.16
2019-03-18T04:20:56.036Z,83.19
2019-03-18T04:23:22.582Z,83.20
2019-03-18T04:25:49.107Z,84.57
2019-03-18T04:28:15.548Z,87.42
2019-03-18T04:30:41.973Z,85.86
2019-03-18T04:33:08.411Z,85.04
2019-03-18T04:35:34.944Z,84.75
2019-03-18T04:38:01.482Z,83.76
2019-03-18T04:40:27.913Z,84.57
2019-03-18T04:42:54.348Z,83.00
2019-03-18T04:45:20.884Z,82.33
2019-03-18T04:47:47.316Z,83.35
2019-03-18T04:50:13.958Z,82.61
2019-03-18T04:52:40.387Z,83.16
2019-03-18T04:55:07.246Z,82.02
2019-03-18T04:57:33.765Z,82.16
2019-03-18T05:00:00.428Z,83.10
2019-03-18T05:02:28.810Z,82.97
2019-03-18T05:04:55.423Z,83.50
2019-03-18T05:07:21.857Z,82.55
2019-03-18T05:09:48.391Z,82.34
2019-03-18T05:12:14.824Z,82.89
2019-03-18T05:14:41.363Z,83.28
2019-03-18T05:17:07.794Z,82.57
2019-03-18T05:19:34.537Z,83.84
2019-03-18T05:22:00.972Z,83.62
2019-03-18T05:24:27.712Z,83.75
2019-03-18T05:26:54.155Z,82.74
2019-03-18T05:29:20.678Z,83.05
2019-03-18T05:31:47.128Z,81.32
2019-03-18T05:34:13.546Z,82.11
2019-03-18T05:36:40.112Z,82.28
2019-03-18T05:39:06.626Z,83.03
2019-03-18T05:41:33.156Z,84.47
2019-03-18T05:43:59.588Z,83.66
2019-03-18T05:46:26.126Z,82.87
2019-03-18T05:48:52.560Z,83.24
2019-03-18T05:51:19.096Z,82.53
2019-03-18T05:53:45.528Z,83.58
2019-03-18T05:56:12.061Z,83.58
2019-03-18T05:58:38.495Z,82.82
2019-03-18T06:01:05.134Z,82.40
2019-03-18T06:03:31.739Z,83.70
2019-03-18T06:05:58.409Z,83.93
2019-03-18T06:08:26.380Z,83.55
2019-03-18T06:10:52.812Z,83.03
2019-03-18T06:13:19.350Z,82.31
2019-03-18T06:15:45.884Z,82.48
2019-03-18T06:18:12.319Z,82.88
2019-03-18T06:20:38.964Z,83.31
2019-03-18T06:23:05.493Z,84.02
2019-03-18T06:25:32.031Z,82.08
2019-03-18T06:27:58.563Z,81.32
2019-03-18T06:30:24.997Z,80.79
2019-03-18T06:32:51.536Z,80.59
2019-03-18T06:35:20.343Z,80.30
2019-03-18T06:37:46.448Z,81.61
2019-03-18T06:40:13.702Z,82.10
2019-03-18T06:42:40.135Z,82.18
2019-03-18T06:45:09.231Z,80.23
2019-03-18T06:47:35.768Z,81.07
2019-03-18T06:50:03.326Z,80.89
2019-03-18T06:52:29.765Z,81.54
2019-03-18T06:54:56.297Z,81.37
2019-03-18T06:57:22.730Z,79.08
2019-03-18T06:59:49.367Z,79.41
2019-03-18T07:02:15.904Z,77.89
2019-03-18T07:04:42.441Z,80.09
2019-03-18T07:07:08.875Z,79.80
2019-03-18T07:09:35.309Z,80.46
2019-03-18T07:12:01.845Z,80.39
2019-03-18T07:14:28.350Z,80.42
2019-03-18T07:16:56.658Z,80.87
2019-03-18T07:19:23.096Z,80.47
2019-03-18T07:21:49.627Z,80.23
2019-03-18T07:24:16.059Z,78.87
2019-03-18T07:26:42.595Z,78.99
2019-03-18T07:29:09.030Z,78.26
2019-03-18T07:31:35.461Z,78.69
2019-03-18T07:34:01.895Z,82.32
2019-03-18T07:36:28.435Z,81.68
2019-03-18T07:38:54.868Z,79.88
2019-03-18T07:41:21.300Z,78.87
2019-03-18T07:43:47.733Z,79.04
2019-03-18T07:46:14.293Z,77.85
2019-03-18T07:48:40.804Z,77.74
2019-03-18T07:51:07.227Z,78.12
2019-03-18T07:53:33.673Z,76.56
2019-03-18T07:56:00.207Z,77.08
2019-03-18T07:58:26.648Z,77.58
2019-03-18T08:00:53.461Z,75.62
2019-03-18T08:03:20.122Z,75.38
2019-03-18T08:05:46.657Z,75.50
2019-03-18T08:08:13.095Z,75.68
2019-03-18T08:10:41.378Z,75.12
2019-03-18T08:13:07.803Z,75.48
2019-03-18T08:15:34.254Z,74.84
2019-03-18T08:18:01.080Z,76.85
2019-03-18T08:20:27.510Z,76.62
2019-03-18T08:22:54.051Z,77.62
2019-03-18T08:25:20.686Z,77.88
2019-03-18T08:27:47.123Z,77.51
2019-03-18T08:30:18.166Z,77.09
2019-03-18T08:32:44.593Z,76.32
2019-03-18T08:35:11.338Z,75.40
2019-03-18T08:37:37.871Z,74.02
2019-03-18T08:40:10.844Z,72.94
2019-03-18T08:42:37.293Z,73.40
2019-03-18T08:45:06.800Z,73.09
2019-03-18T08:47:33.332Z,71.94
2019-03-18T08:49:59.870Z,73.38
2019-03-18T08:52:28.148Z,72.00
2019-03-18T08:54:54.681Z,72.39
2019-03-18T08:57:21.119Z,72.51
2019-03-18T08:59:47.855Z,68.52
2019-03-18T09:02:14.391Z,68.01
2019-03-18T09:04:40.928Z,68.22
2019-03-18T09:07:07.463Z,70.19
2019-03-18T09:09:33.999Z,69.62
2019-03-18T09:12:00.537Z,66.51
2019-03-18T09:14:26.970Z,67.42
2019-03-18T09:16:53.405Z,68.98
2019-03-18T09:19:20.452Z,69.29
2019-03-18T09:21:46.988Z,67.95
2019-03-18T09:24:13.524Z,69.28
2019-03-18T09:26:40.058Z,69.87
2019-03-18T09:29:06.554Z,65.78
2019-03-18T09:31:33.033Z,68.18
2019-03-18T09:33:59.465Z,68.22
2019-03-18T09:36:26.099Z,68.06
2019-03-18T09:38:52.537Z,66.83
2019-03-18T09:41:19.069Z,67.79
2019-03-18T09:43:45.502Z,67.26
2019-03-18T09:46:12.040Z,66.12
2019-03-18T09:48:38.471Z,67.26
2019-03-18T09:51:05.281Z,66.23
2019-03-18T09:53:31.752Z,65.99
2019-03-18T09:55:58.203Z,65.25
2019-03-18T09:58:24.820Z,64.14
2019-03-18T10:00:51.457Z,64.57
2019-03-18T10:03:17.996Z,65.18
2019-03-18T10:05:44.528Z,64.80
2019-03-18T10:08:10.972Z,64.67
2019-03-18T10:10:37.398Z,64.82
2019-03-18T10:13:03.830Z,63.81
2019-03-18T10:15:30.368Z,65.49
2019-03-18T10:17:56.803Z,65.71
2019-03-18T10:20:23.242Z,62.24
2019-03-18T10:22:49.772Z,62.32
2019-03-18T10:25:16.422Z,61.81
2019-03-18T10:27:42.843Z,62.63
2019-03-18T10:30:11.361Z,61.91
2019-03-18T10:32:37.866Z,62.18
2019-03-18T10:35:05.214Z,62.33
2019-03-18T10:37:31.647Z,58.17
2019-03-18T10:39:58.184Z,60.39
2019-03-18T10:42:24.618Z,60.00
2019-03-18T10:44:51.153Z,58.12
2019-03-18T10:47:17.586Z,58.23
2019-03-18T10:49:46.399Z,56.74
2019-03-18T10:52:12.424Z,56.97
2019-03-18T10:54:39.067Z,55.69
2019-03-18T10:57:05.589Z,59.10
2019-03-18T10:59:32.110Z,55.21
2019-03-18T11:01:58.761Z,52.30
2019-03-18T11:04:25.285Z,54.83
2019-03-18T11:06:51.719Z,54.53
2019-03-18T11:09:18.151Z,54.65
2019-03-18T11:11:44.585Z,55.45
2019-03-18T11:14:11.016Z,56.14
2019-03-18T11:16:37.558Z,55.23
2019-03-18T11:19:04.297Z,55.99
2019-03-18T11:21:30.728Z,55.34
2019-03-18T11:23:57.164Z,55.00
2019-03-18T11:26:23.803Z,54.43
2019-03-18T11:28:50.235Z,56.12
2019-03-18T11:31:16.665Z,54.93
2019-03-18T11:33:43.098Z,52.97
2019-03-18T11:36:09.738Z,52.89
2019-03-18T11:38:36.172Z,51.80
2019-03-18T11:41:02.606Z,52.78
2019-03-18T11:43:29.038Z,51.30
2019-03-18T11:45:55.782Z,53.98
2019-03-18T11:48:22.215Z,54.72
2019-03-18T11:50:50.149Z,52.95
2019-03-18T11:53:16.724Z,54.17
2019-03-18T11:55:43.254Z,56.97
2019-03-18T11:58:09.893Z,57.65
2019-03-18T12:00:36.531Z,55.44
2019-03-18T12:03:03.441Z,56.54
2019-03-18T12:05:30.016Z,54.47
2019-03-18T12:07:56.445Z,54.64
2019-03-18T12:10:25.715Z,54.02
2019-03-18T12:12:51.258Z,54.68
2019-03-18T12:15:22.815Z,51.32
2019-03-18T12:17:49.245Z,48.80
2019-03-18T12:20:24.317Z,51.62
2019-03-18T12:22:44.061Z,50.78
2019-03-18T12:25:11.517Z,48.02
2019-03-18T12:27:38.257Z,50.21
2019-03-18T12:30:17.426Z,48.33
2019-03-18T12:32:44.026Z,49.24
2019-03-18T12:35:10.664Z,49.40
2019-03-18T12:37:37.100Z,51.17
2019-03-18T12:40:06.193Z,52.73
2019-03-18T12:42:32.626Z,51.61
2019-03-18T12:44:59.163Z,50.24
2019-03-18T12:47:26.006Z,52.27
2019-03-18T12:49:54.231Z,52.53
2019-03-18T12:52:20.718Z,53.65
2019-03-18T12:54:47.354Z,51.75
2019-03-18T12:57:13.787Z,51.43
2019-03-18T12:59:40.329Z,50.28
2019-03-18T13:02:07.073Z,49.69
2019-03-18T13:04:34.238Z,50.09
2019-03-18T13:07:00.856Z,48.91
2019-03-18T13:09:27.391Z,49.12
2019-03-18T13:11:54.027Z,47.79
2019-03-18T13:14:20.563Z,48.69
2019-03-18T13:16:47.100Z,50.97
2019-03-18T13:19:13.638Z,52.55
2019-03-18T13:21:40.173Z,51.39
2019-03-18T13:24:06.713Z,52.79
2019-03-18T13:26:33.249Z,52.85
2019-03-18T13:29:01.010Z,50.56
2019-03-18T13:31:27.444Z,51.71
2019-03-18T13:33:53.985Z,51.90
2019-03-18T13:36:20.518Z,51.22
2019-03-18T13:38:47.053Z,51.96
2019-03-18T13:41:13.487Z,51.86
2019-03-18T13:43:39.922Z,51.74
2019-03-18T13:46:06.569Z,52.04
2019-03-18T13:48:33.158Z,51.78
2019-03-18T13:50:59.626Z,51.78
2019-03-18T13:53:26.162Z,51.44
2019-03-18T13:55:52.699Z,50.76
2019-03-18T13:58:19.145Z,50.81
2019-03-18T14:00:45.672Z,51.66
2019-03-18T14:03:12.189Z,51.41
2019-03-18T14:05:38.846Z,51.50
2019-03-18T14:08:06.608Z,51.15
2019-03-18T14:10:33.040Z,51.97
2019-03-18T14:12:59.577Z,50.04
2019-03-18T14:15:26.218Z,51.61
2019-03-18T14:17:52.648Z,51.20
2019-03-18T14:20:20.929Z,51.67
2019-03-18T14:22:47.460Z,51.21
2019-03-18T14:25:13.997Z,50.27
2019-03-18T14:27:40.431Z,52.91
2019-03-18T14:30:15.469Z,49.64
2019-03-18T14:32:42.410Z,51.78
2019-03-18T14:35:09.356Z,51.39
2019-03-18T14:37:35.791Z,52.62
2019-03-18T14:40:03.350Z,50.60
2019-03-18T14:42:29.885Z,51.32
2019-03-18T14:44:56.421Z,53.75
2019-03-18T14:47:22.962Z,51.89
2019-03-18T14:49:49.390Z,51.89
2019-03-18T14:52:15.927Z,52.66
2019-03-18T14:54:42.463Z,52.06
2019-03-18T14:57:10.741Z,52.71
2019-03-18T14:59:37.173Z,51.92
2019-03-18T15:02:03.699Z,50.34
2019-03-18T15:04:30.350Z,49.57
2019-03-18T15:06:56.989Z,50.12
2019-03-18T15:09:23.524Z,50.26
2019-03-18T15:11:49.955Z,52.22
2019-03-18T15:14:16.390Z,50.32
2019-03-18T15:16:42.925Z,48.80
2019-03-18T15:19:09.358Z,48.76
2019-03-18T15:21:35.792Z,50.26
2019-03-18T15:24:02.328Z,47.13
2019-03-18T15:26:28.763Z,49.08
2019-03-18T15:28:57.038Z,49.06
2019-03-18T15:31:23.576Z,49.06
2019-03-18T15:33:50.011Z,47.33
2019-03-18T15:36:16.545Z,46.51
2019-03-18T15:38:42.976Z,46.10
2019-03-18T15:41:09.513Z,46.85
2019-03-18T15:43:35.949Z,45.50
2019-03-18T15:46:02.481Z,46.11
2019-03-18T15:48:28.916Z,45.68
2019-03-18T15:50:55.349Z,45.16
2019-03-18T15:53:21.782Z,45.00
2019-03-18T15:55:48.318Z,45.53
2019-03-18T15:58:14.752Z,51.12
2019-03-18T16:00:41.185Z,53.02
2019-03-18T16:03:07.725Z,53.96
2019-03-18T16:05:34.359Z,55.44
2019-03-18T16:08:00.907Z,55.39
2019-03-18T16:10:27.330Z,54.70
2019-03-18T16:12:53.763Z,55.25
2019-03-18T16:15:20.504Z,55.47
2019-03-18T16:17:46.940Z,55.87
2019-03-18T16:20:14.806Z,55.64
2019-03-18T16:22:41.452Z,55.44
2019-03-18T16:25:08.808Z,57.60
2019-03-18T16:27:37.081Z,57.55
2019-03-18T16:30:15.132Z,57.32
2019-03-18T16:32:41.728Z,57.39
2019-03-18T16:35:10.302Z,57.28
2019-03-18T16:37:36.843Z,57.76
2019-03-18T16:40:06.682Z,58.83
2019-03-18T16:42:33.187Z,58.99
2019-03-18T16:44:59.729Z,59.40
2019-03-18T16:47:26.359Z,59.48
2019-03-18T16:49:52.904Z,58.67
2019-03-18T16:52:19.435Z,59.24
2019-03-18T16:54:45.967Z,58.61
2019-03-18T16:57:12.389Z,58.34
2019-03-18T16:59:38.838Z,56.46
2019-03-18T17:02:05.373Z,55.21
2019-03-18T17:04:32.010Z,56.92
2019-03-18T17:06:58.548Z,57.25
2019-03-18T17:09:25.072Z,58.41
2019-03-18T17:11:51.517Z,56.94
2019-03-18T17:14:19.792Z,56.35
2019-03-18T17:16:46.329Z,55.48
2019-03-18T17:19:12.863Z,54.60
2019-03-18T17:21:39.297Z,54.89
2019-03-18T17:24:05.730Z,56.08
2019-03-18T17:26:32.270Z,56.72
2019-03-18T17:28:58.801Z,57.40
2019-03-18T17:31:25.338Z,57.04
2019-03-18T17:33:51.771Z,57.30
2019-03-18T17:36:18.235Z,57.84
2019-03-18T17:38:44.740Z,58.16
2019-03-18T17:41:11.175Z,58.45
2019-03-18T17:43:37.591Z,58.88
2019-03-18T17:46:04.072Z,59.25
2019-03-18T17:48:30.494Z,60.03
2019-03-18T17:50:57.014Z,60.86
2019-03-18T17:53:23.564Z,62.47
2019-03-18T17:55:50.185Z,59.42
2019-03-18T17:58:18.460Z,57.49
2019-03-18T18:00:56.056Z,58.39
2019-03-18T18:03:22.497Z,58.44
2019-03-18T18:05:51.474Z,60.29
2019-03-18T18:08:18.419Z,60.42
2019-03-18T18:10:45.074Z,60.96
2019-03-18T18:13:11.523Z,62.28
2019-03-18T18:15:38.009Z,61.75
2019-03-18T18:18:04.675Z,61.61
2019-03-18T18:20:31.518Z,60.30
2019-03-18T18:22:58.158Z,60.66
2019-03-18T18:25:24.794Z,61.12
2019-03-18T18:27:51.231Z,62.08
2019-03-18T18:30:18.483Z,65.54
2019-03-18T18:32:45.224Z,63.69
2019-03-18T18:35:12.579Z,64.78
2019-03-18T18:37:39.043Z,63.25
2019-03-18T18:40:19.473Z,62.28
2019-03-18T18:42:46.012Z,62.98
2019-03-18T18:45:13.059Z,63.55
2019-03-18T18:47:39.700Z,62.39
2019-03-18T18:50:08.177Z,62.09
2019-03-18T18:52:34.620Z,62.96
2019-03-18T18:55:01.250Z,64.01
2019-03-18T18:57:27.684Z,64.95
2019-03-18T18:59:54.118Z,64.36
2019-03-18T19:02:20.551Z,64.35
2019-03-18T19:04:47.087Z,63.08
2019-03-18T19:07:13.725Z,62.16
2019-03-18T19:09:40.263Z,61.95
2019-03-18T19:12:06.796Z,61.14
2019-03-18T19:14:33.331Z,60.33
2019-03-18T19:16:59.766Z,60.25
2019-03-18T19:19:26.199Z,59.02
2019-03-18T19:21:52.637Z,59.22
2019-03-18T19:24:19.682Z,59.42
2019-03-18T19:26:46.536Z,59.62
2019-03-18T19:29:13.602Z,60.15
2019-03-18T19:31:40.005Z,59.98
2019-03-18T19:34:06.469Z,59.78
2019-03-18T19:36:33.079Z,60.75
2019-03-18T19:38:59.618Z,60.37
2019-03-18T19:41:26.323Z,60.68
2019-03-18T19:43:52.892Z,60.57
2019-03-18T19:46:19.431Z,60.25
2019-03-18T19:48:45.858Z,60.74
2019-03-18T19:51:12.278Z,60.61
2019-03-18T19:53:48.604Z,60.70
2019-03-18T19:56:09.052Z,60.88
2019-03-18T19:58:35.484Z,60.85
2019-03-18T20:01:01.927Z,61.70
2019-03-18T20:03:28.350Z,61.38
2019-03-18T20:05:54.887Z,61.92
2019-03-18T20:08:21.527Z,61.55
2019-03-18T20:10:47.959Z,61.55
2019-03-18T20:13:14.499Z,61.35
2019-03-18T20:15:41.032Z,60.88
2019-03-18T20:18:07.467Z,60.75
2019-03-18T20:20:33.911Z,60.52
2019-03-18T20:23:00.332Z,60.24
2019-03-18T20:25:26.872Z,60.72
2019-03-18T20:27:53.404Z,60.10
2019-03-18T20:30:22.698Z,62.50
2019-03-18T20:32:49.145Z,61.00
2019-03-18T20:35:21.103Z,60.61
2019-03-18T20:37:47.638Z,61.96
2019-03-18T20:40:15.197Z,61.91
2019-03-18T20:42:42.041Z,63.26
2019-03-18T20:45:13.613Z,63.95
2019-03-18T20:47:40.130Z,64.29
2019-03-18T20:50:12.502Z,63.62
2019-03-18T20:52:38.938Z,63.04
2019-03-18T20:55:06.599Z,63.41
2019-03-18T20:57:34.878Z,64.24
2019-03-18T21:00:05.444Z,64.15
2019-03-18T21:02:32.149Z,64.36
2019-03-18T21:04:58.682Z,63.91
2019-03-18T21:07:27.265Z,63.72
2019-03-18T21:09:53.801Z,63.54
2019-03-18T21:12:20.235Z,62.65
2019-03-18T21:14:46.771Z,62.86
2019-03-18T21:17:13.987Z,63.14
2019-03-18T21:19:40.462Z,63.60
2019-03-18T21:22:07.098Z,63.84
2019-03-18T21:24:35.375Z,63.43
2019-03-18T21:27:03.038Z,63.66
2019-03-18T21:29:29.472Z,63.13
2019-03-18T21:31:55.904Z,63.43
2019-03-18T21:34:22.338Z,62.86
2019-03-18T21:36:49.080Z,63.67
2019-03-18T21:39:18.141Z,62.77
2019-03-18T21:41:44.809Z,63.48
2019-03-18T21:44:11.227Z,62.81
2019-03-18T21:46:37.705Z,62.93
2019-03-18T21:49:06.403Z,62.71
2019-03-18T21:51:32.900Z,63.39
2019-03-18T21:53:59.440Z,63.09
2019-03-18T21:56:25.971Z,64.28
2019-03-18T21:58:53.635Z,63.93
2019-03-18T22:01:20.176Z,63.99
2019-03-18T22:03:47.737Z,63.87
2019-03-18T22:06:15.517Z,63.54
2019-03-18T22:08:42.142Z,63.54
2019-03-18T22:11:08.674Z,64.70
2019-03-18T22:13:35.206Z,63.87
2019-03-18T22:16:01.750Z,63.88
2019-03-18T22:18:28.275Z,64.17
2019-03-18T22:20:56.658Z,63.67
2019-03-18T22:23:23.201Z,63.59
2019-03-18T22:25:49.732Z,63.33
2019-03-18T22:28:16.161Z,64.09
2019-03-18T22:30:44.811Z,62.50
2019-03-18T22:33:11.382Z,64.07
2019-03-18T22:35:38.021Z,65.22
2019-03-18T22:38:04.869Z,65.24
2019-03-18T22:40:31.401Z,65.02
2019-03-18T22:42:57.952Z,64.10
2019-03-18T22:45:24.475Z,64.38
2019-03-18T22:47:51.015Z,64.54
2019-03-18T22:50:18.774Z,64.80
2019-03-18T22:52:45.209Z,63.54
2019-03-18T22:55:14.609Z,63.68
2019-03-18T22:57:41.046Z,63.77
2019-03-18T23:00:21.718Z,64.09
2019-03-18T23:02:48.453Z,63.28
2019-03-18T23:05:15.192Z,63.15
2019-03-18T23:07:41.829Z,63.51
2019-03-18T23:10:08.573Z,63.06
2019-03-18T23:12:36.847Z,62.98
2019-03-18T23:15:05.533Z,64.20
2019-03-18T23:17:31.967Z,63.95
2019-03-18T23:19:58.711Z,65.13
2019-03-18T23:22:25.243Z,64.26
2019-03-18T23:24:51.805Z,63.95
2019-03-18T23:27:18.317Z,63.94
2019-03-18T23:29:44.750Z,64.41
2019-03-18T23:32:11.285Z,64.17
2019-03-18T23:34:37.821Z,64.26
2019-03-18T23:37:04.254Z,63.72
2019-03-18T23:39:30.791Z,64.81
2019-03-18T23:41:57.224Z,65.57
2019-03-18T23:44:23.657Z,64.53
2019-03-18T23:46:50.094Z,64.33
2019-03-18T23:49:16.527Z,64.39
2019-03-18T23:51:43.368Z,62.81
2019-03-18T23:54:09.800Z,65.62
2019-03-18T23:56:36.338Z,65.30
2019-03-18T23:59:02.772Z,67.05
